sensor_id;sensor_type;location;lat;lon;timestamp;pressure;altitude;pressure_sealevel;temperature;humidity
73633;BME280;61927;50.080;14.418;2023-10-09T00:02:12;100211.84;;;11.73;76.61
73633;BME280;61927;50.080;14.418;2023-10-09T00:04:40;100202.16;;;11.72;76.49
73633;BME280;61927;50.080;14.418;2023-10-09T00:07:11;100186.22;;;11.72;76.49
73633;BME280;61927;50.080;14.418;2023-10-09T00:09:37;100185.44;;;11.70;76.34
73633;BME280;61927;50.080;14.418;2023-10-09T00:12:20;100180.97;;;11.70;76.40
73633;BME280;61927;50.080;14.418;2023-10-09T00:14:51;100188.19;;;11.68;76.44
73633;BME280;61927;50.080;14.418;2023-10-09T00:17:20;100193.41;;;11.70;76.23
73633;BME280;61927;50.080;14.418;2023-10-09T00:19:48;100188.88;;;11.72;76.78
73633;BME280;61927;50.080;14.418;2023-10-09T00:22:17;100186.22;;;11.72;76.86
73633;BME280;61927;50.080;14.418;2023-10-09T00:24:57;100188.94;;;11.70;76.82
73633;BME280;61927;50.080;14.418;2023-10-09T00:27:45;100185.00;;;11.61;77.33
73633;BME280;61927;50.080;14.418;2023-10-09T00:30:16;100171.78;;;11.60;77.52
73633;BME280;61927;50.080;14.418;2023-10-09T00:32:43;100157.31;;;11.65;77.37
73633;BME280;61927;50.080;14.418;2023-10-09T00:35:27;100152.94;;;11.64;77.25
73633;BME280;61927;50.080;14.418;2023-10-09T00:38:06;100154.28;;;11.56;77.56
73633;BME280;61927;50.080;14.418;2023-10-09T00:40:40;100137.56;;;11.54;77.80
73633;BME280;61927;50.080;14.418;2023-10-09T00:43:15;100125.31;;;11.51;77.90
73633;BME280;61927;50.080;14.418;2023-10-09T00:45:42;100111.25;;;11.49;77.80
73633;BME280;61927;50.080;14.418;2023-10-09T00:48:10;100116.72;;;11.46;77.98
73633;BME280;61927;50.080;14.418;2023-10-09T00:50:39;100108.75;;;11.46;78.34
73633;BME280;61927;50.080;14.418;2023-10-09T00:53:13;100101.56;;;11.48;78.50
73633;BME280;61927;50.080;14.418;2023-10-09T00:55:44;100103.19;;;11.51;78.39
73633;BME280;61927;50.080;14.418;2023-10-09T00:58:14;100098.66;;;11.53;78.24
73633;BME280;61927;50.080;14.418;2023-10-09T01:00:49;100102.00;;;11.56;78.15
73633;BME280;61927;50.080;14.418;2023-10-09T01:03:19;100084.16;;;11.58;77.23
73633;BME280;61927;50.080;14.418;2023-10-09T01:05:54;100075.59;;;11.53;77.31
73633;BME280;61927;50.080;14.418;2023-10-09T01:08:28;100063.25;;;11.52;77.48
73633;BME280;61927;50.080;14.418;2023-10-09T01:11:11;100054.31;;;11.53;77.30
73633;BME280;61927;50.080;14.418;2023-10-09T01:13:46;100051.56;;;11.55;76.99
73633;BME280;61927;50.080;14.418;2023-10-09T01:16:20;100041.81;;;11.55;76.58
73633;BME280;61927;50.080;14.418;2023-10-09T01:18:55;100038.03;;;11.59;75.81
73633;BME280;61927;50.080;14.418;2023-10-09T01:21:24;100033.66;;;11.58;75.72
73633;BME280;61927;50.080;14.418;2023-10-09T01:23:52;100022.44;;;11.53;75.82
73633;BME280;61927;50.080;14.418;2023-10-09T01:29:00;100038.56;;;11.50;76.11
73633;BME280;61927;50.080;14.418;2023-10-09T01:31:27;100008.38;;;11.51;75.96
73633;BME280;61927;50.080;14.418;2023-10-09T01:33:59;100043.94;;;11.49;76.22
73633;BME280;61927;50.080;14.418;2023-10-09T01:36:26;100030.75;;;11.47;76.25
73633;BME280;61927;50.080;14.418;2023-10-09T01:39:01;100027.91;;;11.50;76.43
73633;BME280;61927;50.080;14.418;2023-10-09T01:41:48;100022.78;;;11.47;75.80
73633;BME280;61927;50.080;14.418;2023-10-09T01:44:17;100019.34;;;11.45;75.88
73633;BME280;61927;50.080;14.418;2023-10-09T01:46:44;100012.91;;;11.49;75.88
73633;BME280;61927;50.080;14.418;2023-10-09T01:49:12;100001.50;;;11.47;75.74
73633;BME280;61927;50.080;14.418;2023-10-09T01:51:47;99994.50;;;11.46;75.72
73633;BME280;61927;50.080;14.418;2023-10-09T01:54:14;100000.66;;;11.47;75.70
73633;BME280;61927;50.080;14.418;2023-10-09T01:56:59;99977.84;;;11.43;76.15
73633;BME280;61927;50.080;14.418;2023-10-09T01:59:34;99986.59;;;11.45;75.92
73633;BME280;61927;50.080;14.418;2023-10-09T02:02:06;99962.59;;;11.46;75.85
73633;BME280;61927;50.080;14.418;2023-10-09T02:04:54;99960.03;;;11.45;76.31
73633;BME280;61927;50.080;14.418;2023-10-09T02:07:20;99971.16;;;11.51;75.70
73633;BME280;61927;50.080;14.418;2023-10-09T02:09:55;99966.78;;;11.50;75.99
73633;BME280;61927;50.080;14.418;2023-10-09T02:12:21;99964.31;;;11.47;75.48
73633;BME280;61927;50.080;14.418;2023-10-09T02:14:50;99960.97;;;11.44;75.71
73633;BME280;61927;50.080;14.418;2023-10-09T02:17:19;99959.25;;;11.43;75.39
73633;BME280;61927;50.080;14.418;2023-10-09T02:19:53;99951.63;;;11.37;75.88
73633;BME280;61927;50.080;14.418;2023-10-09T02:22:19;99955.31;;;11.34;75.50
73633;BME280;61927;50.080;14.418;2023-10-09T02:24:45;99949.34;;;11.30;75.82
73633;BME280;61927;50.080;14.418;2023-10-09T02:27:14;99935.69;;;11.37;75.67
73633;BME280;61927;50.080;14.418;2023-10-09T02:29:46;99943.41;;;11.41;75.59
73633;BME280;61927;50.080;14.418;2023-10-09T02:32:13;99938.84;;;11.43;75.29
73633;BME280;61927;50.080;14.418;2023-10-09T02:34:40;99933.44;;;11.45;75.22
73633;BME280;61927;50.080;14.418;2023-10-09T02:37:06;99925.41;;;11.46;74.82
73633;BME280;61927;50.080;14.418;2023-10-09T02:39:38;99914.75;;;11.46;74.93
73633;BME280;61927;50.080;14.418;2023-10-09T02:42:09;99909.34;;;11.48;74.73
73633;BME280;61927;50.080;14.418;2023-10-09T02:44:37;99898.72;;;11.48;74.62
73633;BME280;61927;50.080;14.418;2023-10-09T02:47:12;99894.44;;;11.45;74.54
73633;BME280;61927;50.080;14.418;2023-10-09T02:49:46;99891.03;;;11.43;74.95
73633;BME280;61927;50.080;14.418;2023-10-09T02:52:14;99892.75;;;11.44;74.87
73633;BME280;61927;50.080;14.418;2023-10-09T02:54:47;99895.31;;;11.46;74.82
73633;BME280;61927;50.080;14.418;2023-10-09T02:57:13;99878.25;;;11.50;74.80
73633;BME280;61927;50.080;14.418;2023-10-09T02:59:48;99872.84;;;11.51;74.47
73633;BME280;61927;50.080;14.418;2023-10-09T03:02:18;99876.25;;;11.53;74.59
73633;BME280;61927;50.080;14.418;2023-10-09T03:04:44;99875.13;;;11.57;74.47
73633;BME280;61927;50.080;14.418;2023-10-09T03:07:10;99871.69;;;11.55;74.57
73633;BME280;61927;50.080;14.418;2023-10-09T03:09:37;99866.22;;;11.58;74.48
73633;BME280;61927;50.080;14.418;2023-10-09T03:12:04;99866.88;;;11.62;74.43
73633;BME280;61927;50.080;14.418;2023-10-09T03:14:33;99856.91;;;11.65;73.94
73633;BME280;61927;50.080;14.418;2023-10-09T03:17:01;99848.84;;;11.67;73.77
73633;BME280;61927;50.080;14.418;2023-10-09T03:19:32;99827.69;;;11.65;73.97
73633;BME280;61927;50.080;14.418;2023-10-09T03:22:06;99835.47;;;11.69;73.72
73633;BME280;61927;50.080;14.418;2023-10-09T03:24:36;99827.50;;;11.69;73.55
73633;BME280;61927;50.080;14.418;2023-10-09T03:27:03;99823.22;;;11.66;73.97
73633;BME280;61927;50.080;14.418;2023-10-09T03:29:28;99819.53;;;11.69;73.68
73633;BME280;61927;50.080;14.418;2023-10-09T03:31:54;99813.84;;;11.75;73.56
73633;BME280;61927;50.080;14.418;2023-10-09T03:34:22;99803.28;;;11.73;73.49
73633;BME280;61927;50.080;14.418;2023-10-09T03:36:49;99796.16;;;11.74;73.48
73633;BME280;61927;50.080;14.418;2023-10-09T03:39:25;99797.97;;;11.73;73.80
73633;BME280;61927;50.080;14.418;2023-10-09T03:42:07;99792.56;;;11.75;73.67
73633;BME280;61927;50.080;14.418;2023-10-09T03:44:44;99787.16;;;11.76;73.66
73633;BME280;61927;50.080;14.418;2023-10-09T03:47:15;99774.81;;;11.75;73.97
73633;BME280;61927;50.080;14.418;2023-10-09T03:49:42;99776.28;;;11.81;73.58
73633;BME280;61927;50.080;14.418;2023-10-09T03:52:09;99766.69;;;11.78;73.87
73633;BME280;61927;50.080;14.418;2023-10-09T03:54:35;99759.38;;;11.82;73.85
73633;BME280;61927;50.080;14.418;2023-10-09T03:57:01;99755.66;;;11.84;73.58
73633;BME280;61927;50.080;14.418;2023-10-09T03:59:28;99746.41;;;11.76;73.93
73633;BME280;61927;50.080;14.418;2023-10-09T04:01:57;99741.09;;;11.76;74.45
73633;BME280;61927;50.080;14.418;2023-10-09T04:04:24;99731.59;;;11.72;74.36
73633;BME280;61927;50.080;14.418;2023-10-09T04:06:50;99720.31;;;11.68;74.94
73633;BME280;61927;50.080;14.418;2023-10-09T04:09:18;99717.47;;;11.71;74.56
73633;BME280;61927;50.080;14.418;2023-10-09T04:11:52;99707.78;;;11.70;74.77
73633;BME280;61927;50.080;14.418;2023-10-09T04:14:37;99701.69;;;11.68;74.89
73633;BME280;61927;50.080;14.418;2023-10-09T04:17:13;99691.84;;;11.70;74.91
73633;BME280;61927;50.080;14.418;2023-10-09T04:19:48;99682.63;;;11.61;75.26
73633;BME280;61927;50.080;14.418;2023-10-09T04:22:14;99679.13;;;11.61;75.74
73633;BME280;61927;50.080;14.418;2023-10-09T04:24:56;99683.47;;;11.62;75.58
73633;BME280;61927;50.080;14.418;2023-10-09T04:27:22;99682.44;;;11.64;75.44
73633;BME280;61927;50.080;14.418;2023-10-09T04:29:54;99671.13;;;11.61;75.70
73633;BME280;61927;50.080;14.418;2023-10-09T04:32:20;99664.03;;;11.61;75.90
73633;BME280;61927;50.080;14.418;2023-10-09T04:34:51;99659.56;;;11.62;75.86
73633;BME280;61927;50.080;14.418;2023-10-09T04:37:42;99652.72;;;11.58;76.22
73633;BME280;61927;50.080;14.418;2023-10-09T04:40:10;99638.50;;;11.59;76.25
73633;BME280;61927;50.080;14.418;2023-10-09T04:42:50;99646.38;;;11.60;76.08
73633;BME280;61927;50.080;14.418;2023-10-09T04:45:24;99644.38;;;11.64;76.57
73633;BME280;61927;50.080;14.418;2023-10-09T04:48:09;99637.06;;;11.68;75.93
73633;BME280;61927;50.080;14.418;2023-10-09T04:50:35;99623.19;;;11.62;76.35
73633;BME280;61927;50.080;14.418;2023-10-09T04:53:02;99625.97;;;11.61;76.46
73633;BME280;61927;50.080;14.418;2023-10-09T04:55:43;99642.47;;;11.66;76.33
73633;BME280;61927;50.080;14.418;2023-10-09T04:58:21;99660.78;;;11.71;76.30
73633;BME280;61927;50.080;14.418;2023-10-09T05:00:54;99673.03;;;11.73;76.08
73633;BME280;61927;50.080;14.418;2023-10-09T05:03:22;99662.03;;;11.79;76.01
73633;BME280;61927;50.080;14.418;2023-10-09T05:05:53;99661.84;;;11.82;75.61
73633;BME280;61927;50.080;14.418;2023-10-09T05:08:26;99671.44;;;11.85;75.63
73633;BME280;61927;50.080;14.418;2023-10-09T05:10:54;99669.25;;;11.91;75.28
73633;BME280;61927;50.080;14.418;2023-10-09T05:13:32;99672.66;;;11.93;75.40
73633;BME280;61927;50.080;14.418;2023-10-09T05:16:11;99670.84;;;11.94;75.42
73633;BME280;61927;50.080;14.418;2023-10-09T05:18:46;99683.84;;;11.99;75.17
73633;BME280;61927;50.080;14.418;2023-10-09T05:21:32;99679.38;;;11.99;74.98
73633;BME280;61927;50.080;14.418;2023-10-09T05:23:59;99680.34;;;11.98;74.34
73633;BME280;61927;50.080;14.418;2023-10-09T05:29:25;99678.53;;;11.99;74.38
73633;BME280;61927;50.080;14.418;2023-10-09T05:32:13;99669.50;;;12.01;74.23
73633;BME280;61927;50.080;14.418;2023-10-09T05:34:40;99676.34;;;12.05;74.39
73633;BME280;61927;50.080;14.418;2023-10-09T05:37:35;99674.88;;;12.14;74.31
73633;BME280;61927;50.080;14.418;2023-10-09T05:40:09;99670.22;;;12.17;74.23
73633;BME280;61927;50.080;14.418;2023-10-09T05:42:44;99672.97;;;12.16;74.39
73633;BME280;61927;50.080;14.418;2023-10-09T05:45:17;99680.88;;;12.17;74.20
73633;BME280;61927;50.080;14.418;2023-10-09T05:47:52;99672.88;;;12.17;74.20
73633;BME280;61927;50.080;14.418;2023-10-09T05:50:26;99678.84;;;12.21;74.01
73633;BME280;61927;50.080;14.418;2023-10-09T05:52:56;99667.16;;;12.23;74.05
73633;BME280;61927;50.080;14.418;2023-10-09T05:55:24;99670.47;;;12.27;73.71
73633;BME280;61927;50.080;14.418;2023-10-09T05:57:56;99668.66;;;12.27;73.93
73633;BME280;61927;50.080;14.418;2023-10-09T06:00:40;99672.47;;;12.23;74.04
73633;BME280;61927;50.080;14.418;2023-10-09T06:03:24;99665.25;;;12.25;74.10
73633;BME280;61927;50.080;14.418;2023-10-09T06:06:13;99645.38;;;12.31;73.83
73633;BME280;61927;50.080;14.418;2023-10-09T06:08:58;99637.28;;;12.33;73.77
73633;BME280;61927;50.080;14.418;2023-10-09T06:11:45;99635.69;;;12.30;73.69
73633;BME280;61927;50.080;14.418;2023-10-09T06:14:15;99627.59;;;12.32;73.51
73633;BME280;61927;50.080;14.418;2023-10-09T06:16:53;99619.81;;;12.28;73.78
73633;BME280;61927;50.080;14.418;2023-10-09T06:19:23;99609.47;;;12.24;74.07
73633;BME280;61927;50.080;14.418;2023-10-09T06:21:49;99606.53;;;12.28;73.94
73633;BME280;61927;50.080;14.418;2023-10-09T06:24:21;99604.25;;;12.22;74.61
73633;BME280;61927;50.080;14.418;2023-10-09T06:26:52;99596.59;;;12.18;74.93
73633;BME280;61927;50.080;14.418;2023-10-09T06:29:30;99610.63;;;12.20;75.22
73633;BME280;61927;50.080;14.418;2023-10-09T06:32:18;99609.78;;;12.19;75.24
73633;BME280;61927;50.080;14.418;2023-10-09T06:34:54;99607.13;;;12.19;75.48
73633;BME280;61927;50.080;14.418;2023-10-09T06:37:40;99623.94;;;12.20;75.52
73633;BME280;61927;50.080;14.418;2023-10-09T06:40:29;99625.09;;;12.16;75.75
73633;BME280;61927;50.080;14.418;2023-10-09T06:43:14;99616.25;;;12.15;75.98
73633;BME280;61927;50.080;14.418;2023-10-09T06:45:43;99618.53;;;12.21;76.13
73633;BME280;61927;50.080;14.418;2023-10-09T06:48:12;99613.41;;;12.18;76.36
73633;BME280;61927;50.080;14.418;2023-10-09T06:50:57;99622.03;;;12.22;76.56
73633;BME280;61927;50.080;14.418;2023-10-09T06:54:01;99624.50;;;12.25;76.71
73633;BME280;61927;50.080;14.418;2023-10-09T06:56:32;99628.84;;;12.26;76.76
73633;BME280;61927;50.080;14.418;2023-10-09T06:59:03;99628.66;;;12.29;76.88
73633;BME280;61927;50.080;14.418;2023-10-09T07:01:30;99639.09;;;12.32;76.67
73633;BME280;61927;50.080;14.418;2023-10-09T07:04:12;99647.28;;;12.29;77.25
73633;BME280;61927;50.080;14.418;2023-10-09T07:06:55;99643.00;;;12.26;77.52
73633;BME280;61927;50.080;14.418;2023-10-09T07:09:25;99631.22;;;12.31;77.75
73633;BME280;61927;50.080;14.418;2023-10-09T07:12:08;99636.22;;;12.35;77.94
73633;BME280;61927;50.080;14.418;2023-10-09T07:14:51;99634.03;;;12.42;78.45
73633;BME280;61927;50.080;14.418;2023-10-09T07:17:17;99627.63;;;12.44;78.87
73633;BME280;61927;50.080;14.418;2023-10-09T07:19:53;99622.31;;;12.44;78.72
73633;BME280;61927;50.080;14.418;2023-10-09T07:22:19;99626.59;;;12.47;78.91
73633;BME280;61927;50.080;14.418;2023-10-09T07:24:48;99616.38;;;12.53;78.97
73633;BME280;61927;50.080;14.418;2023-10-09T07:27:25;99623.75;;;12.63;78.37
73633;BME280;61927;50.080;14.418;2023-10-09T07:30:12;99626.31;;;12.64;78.31
73633;BME280;61927;50.080;14.418;2023-10-09T07:33:03;99620.13;;;12.64;77.82
73633;BME280;61927;50.080;14.418;2023-10-09T07:35:45;99624.50;;;12.65;78.03
73633;BME280;61927;50.080;14.418;2023-10-09T07:38:18;99631.84;;;12.61;78.12
73633;BME280;61927;50.080;14.418;2023-10-09T07:41:03;99637.91;;;12.63;77.91
73633;BME280;61927;50.080;14.418;2023-10-09T07:43:36;99637.69;;;12.66;77.89
73633;BME280;61927;50.080;14.418;2023-10-09T07:46:06;99630.47;;;12.68;78.05
73633;BME280;61927;50.080;14.418;2023-10-09T07:48:52;99624.19;;;12.69;77.82
73633;BME280;61927;50.080;14.418;2023-10-09T07:51:22;99631.88;;;12.74;77.88
73633;BME280;61927;50.080;14.418;2023-10-09T07:54:13;99633.78;;;12.72;78.00
73633;BME280;61927;50.080;14.418;2023-10-09T07:57:00;99631.31;;;12.69;78.09
73633;BME280;61927;50.080;14.418;2023-10-09T07:59:41;99633.78;;;12.72;78.31
73633;BME280;61927;50.080;14.418;2023-10-09T08:02:21;99628.13;;;12.76;78.07
73633;BME280;61927;50.080;14.418;2023-10-09T08:05:01;99631.34;;;12.81;78.02
73633;BME280;61927;50.080;14.418;2023-10-09T08:07:33;99632.72;;;12.87;78.22
73633;BME280;61927;50.080;14.418;2023-10-09T08:10:04;99625.50;;;12.89;78.16
73633;BME280;61927;50.080;14.418;2023-10-09T08:12:40;99630.28;;;12.97;78.06
73633;BME280;61927;50.080;14.418;2023-10-09T08:15:17;99627.00;;;13.06;78.28
73633;BME280;61927;50.080;14.418;2023-10-09T08:17:56;99628.59;;;13.08;78.34
73633;BME280;61927;50.080;14.418;2023-10-09T08:20:25;99624.53;;;13.15;78.49
73633;BME280;61927;50.080;14.418;2023-10-09T08:22:54;99623.19;;;13.22;78.37
73633;BME280;61927;50.080;14.418;2023-10-09T08:25:26;99625.31;;;13.30;78.27
73633;BME280;61927;50.080;14.418;2023-10-09T08:27:56;99620.09;;;13.41;78.17
73633;BME280;61927;50.080;14.418;2023-10-09T08:30:41;99614.41;;;13.58;77.87
73633;BME280;61927;50.080;14.418;2023-10-09T08:33:18;99619.81;;;13.70;77.45
73633;BME280;61927;50.080;14.418;2023-10-09T08:35:54;99614.66;;;13.79;77.17
73633;BME280;61927;50.080;14.418;2023-10-09T08:38:33;99622.13;;;13.87;77.00
73633;BME280;61927;50.080;14.418;2023-10-09T08:41:10;99614.84;;;13.89;77.11
73633;BME280;61927;50.080;14.418;2023-10-09T08:43:50;99616.34;;;13.93;77.02
73633;BME280;61927;50.080;14.418;2023-10-09T08:46:19;99615.88;;;13.99;76.89
73633;BME280;61927;50.080;14.418;2023-10-09T08:48:46;99618.97;;;14.06;76.62
73633;BME280;61927;50.080;14.418;2023-10-09T08:51:12;99629.53;;;14.07;76.65
73633;BME280;61927;50.080;14.418;2023-10-09T08:53:39;99628.56;;;14.08;76.85
73633;BME280;61927;50.080;14.418;2023-10-09T08:56:12;99620.84;;;14.16;76.69
73633;BME280;61927;50.080;14.418;2023-10-09T08:58:41;99624.88;;;14.22;76.26
73633;BME280;61927;50.080;14.418;2023-10-09T09:01:06;99629.13;;;14.25;76.22
73633;BME280;61927;50.080;14.418;2023-10-09T09:03:40;99627.81;;;14.30;75.95
73633;BME280;61927;50.080;14.418;2023-10-09T09:06:09;99621.25;;;14.47;75.62
73633;BME280;61927;50.080;14.418;2023-10-09T09:08:36;99621.06;;;14.61;74.86
73633;BME280;61927;50.080;14.418;2023-10-09T09:11:08;99609.81;;;14.69;74.52
73633;BME280;61927;50.080;14.418;2023-10-09T09:13:41;99606.31;;;14.79;74.05
73633;BME280;61927;50.080;14.418;2023-10-09T09:16:36;99606.91;;;14.83;74.58
73633;BME280;61927;50.080;14.418;2023-10-09T09:19:09;99597.31;;;14.80;74.92
73633;BME280;61927;50.080;14.418;2023-10-09T09:21:42;99613.59;;;14.77;75.38
73633;BME280;61927;50.080;14.418;2023-10-09T09:24:10;99604.72;;;14.77;75.31
73633;BME280;61927;50.080;14.418;2023-10-09T09:27:02;99600.22;;;14.77;76.02
73633;BME280;61927;50.080;14.418;2023-10-09T09:29:45;99613.13;;;14.83;76.08
73633;BME280;61927;50.080;14.418;2023-10-09T09:32:27;99638.63;;;14.88;76.72
73633;BME280;61927;50.080;14.418;2023-10-09T09:35:04;99642.31;;;14.98;77.09
73633;BME280;61927;50.080;14.418;2023-10-09T09:37:52;99641.59;;;15.07;76.33
73633;BME280;61927;50.080;14.418;2023-10-09T09:40:20;99639.28;;;15.13;75.20
73633;BME280;61927;50.080;14.418;2023-10-09T09:43:00;99649.03;;;15.26;75.73
73633;BME280;61927;50.080;14.418;2023-10-09T09:45:38;99640.41;;;15.33;76.41
73633;BME280;61927;50.080;14.418;2023-10-09T09:48:11;99644.06;;;15.32;75.05
73633;BME280;61927;50.080;14.418;2023-10-09T09:50:41;99633.72;;;15.39;75.43
73633;BME280;61927;50.080;14.418;2023-10-09T09:53:13;99615.75;;;15.52;75.02
73633;BME280;61927;50.080;14.418;2023-10-09T09:55:51;99638.38;;;15.59;74.74
73633;BME280;61927;50.080;14.418;2023-10-09T09:58:24;99634.50;;;15.63;74.68
73633;BME280;61927;50.080;14.418;2023-10-09T10:00:53;99626.09;;;15.68;73.96
73633;BME280;61927;50.080;14.418;2023-10-09T10:03:29;99625.72;;;15.72;74.41
73633;BME280;61927;50.080;14.418;2023-10-09T10:06:00;99623.53;;;15.77;74.00
73633;BME280;61927;50.080;14.418;2023-10-09T10:08:29;99624.25;;;15.79;74.15
73633;BME280;61927;50.080;14.418;2023-10-09T10:10:59;99629.50;;;15.81;74.34
73633;BME280;61927;50.080;14.418;2023-10-09T10:16:13;99617.69;;;15.95;73.51
73633;BME280;61927;50.080;14.418;2023-10-09T10:21:18;99626.81;;;15.92;74.21
73633;BME280;61927;50.080;14.418;2023-10-09T10:23:54;99631.78;;;15.97;74.37
73633;BME280;61927;50.080;14.418;2023-10-09T10:26:32;99628.59;;;16.03;73.98
73633;BME280;61927;50.080;14.418;2023-10-09T10:29:16;99626.78;;;16.03;74.16
73633;BME280;61927;50.080;14.418;2023-10-09T10:31:58;99618.03;;;16.01;74.31
73633;BME280;61927;50.080;14.418;2023-10-09T10:37:36;99596.06;;;16.19;73.97
73633;BME280;61927;50.080;14.418;2023-10-09T10:40:26;99594.72;;;16.24;74.19
73633;BME280;61927;50.080;14.418;2023-10-09T10:43:15;99597.13;;;16.27;74.46
73633;BME280;61927;50.080;14.418;2023-10-09T10:46:07;99600.41;;;16.31;74.12
73633;BME280;61927;50.080;14.418;2023-10-09T10:48:52;99600.41;;;16.31;74.13
73633;BME280;61927;50.080;14.418;2023-10-09T10:51:25;99602.84;;;16.34;74.61
73633;BME280;61927;50.080;14.418;2023-10-09T10:54:01;99608.06;;;16.35;74.67
73633;BME280;61927;50.080;14.418;2023-10-09T10:56:47;99615.97;;;16.37;74.56
73633;BME280;61927;50.080;14.418;2023-10-09T10:59:14;99612.44;;;16.36;74.75
73633;BME280;61927;50.080;14.418;2023-10-09T11:01:39;99618.66;;;16.37;74.97
73633;BME280;61927;50.080;14.418;2023-10-09T11:04:39;99617.47;;;16.30;75.46
73633;BME280;61927;50.080;14.418;2023-10-09T11:07:09;99617.19;;;16.33;75.18
73633;BME280;61927;50.080;14.418;2023-10-09T11:09:49;99614.91;;;16.28;75.85
73633;BME280;61927;50.080;14.418;2023-10-09T11:12:43;99610.66;;;16.26;76.16
73633;BME280;61927;50.080;14.418;2023-10-09T11:15:33;99609.09;;;16.23;77.02
73633;BME280;61927;50.080;14.418;2023-10-09T11:18:13;99608.00;;;16.14;77.71
73633;BME280;61927;50.080;14.418;2023-10-09T11:20:57;99605.22;;;16.16;77.51
73633;BME280;61927;50.080;14.418;2023-10-09T11:23:30;99597.56;;;16.11;78.35
73633;BME280;61927;50.080;14.418;2023-10-09T11:25:59;99594.28;;;16.08;78.52
73633;BME280;61927;50.080;14.418;2023-10-09T11:28:43;99577.88;;;16.01;79.35
73633;BME280;61927;50.080;14.418;2023-10-09T11:31:22;99578.84;;;16.00;79.86
73633;BME280;61927;50.080;14.418;2023-10-09T11:33:50;99581.19;;;15.94;79.98
73633;BME280;61927;50.080;14.418;2023-10-09T11:36:25;99580.34;;;15.93;80.33
73633;BME280;61927;50.080;14.418;2023-10-09T11:38:58;99577.91;;;15.90;80.37
73633;BME280;61927;50.080;14.418;2023-10-09T11:41:40;99567.19;;;15.90;80.47
73633;BME280;61927;50.080;14.418;2023-10-09T11:44:07;99571.56;;;15.91;81.15
73633;BME280;61927;50.080;14.418;2023-10-09T11:47:00;99568.66;;;15.94;81.06
73633;BME280;61927;50.080;14.418;2023-10-09T11:49:55;99560.00;;;16.02;81.38
73633;BME280;61927;50.080;14.418;2023-10-09T11:52:28;99544.53;;;16.05;81.01
73633;BME280;61927;50.080;14.418;2023-10-09T11:55:21;99543.63;;;16.16;81.51
73633;BME280;61927;50.080;14.418;2023-10-09T11:57:51;99547.38;;;16.25;80.71
73633;BME280;61927;50.080;14.418;2023-10-09T12:00:17;99540.25;;;16.35;80.33
73633;BME280;61927;50.080;14.418;2023-10-09T12:02:55;99532.31;;;16.44;79.85
73633;BME280;61927;50.080;14.418;2023-10-09T12:05:21;99535.69;;;16.46;80.24
73633;BME280;61927;50.080;14.418;2023-10-09T12:07:49;99528.25;;;16.50;79.83
73633;BME280;61927;50.080;14.418;2023-10-09T12:10:21;99527.53;;;16.48;80.09
73633;BME280;61927;50.080;14.418;2023-10-09T12:12:55;99526.81;;;16.46;80.57
73633;BME280;61927;50.080;14.418;2023-10-09T12:15:24;99524.72;;;16.50;80.09
73633;BME280;61927;50.080;14.418;2023-10-09T12:17:50;99523.41;;;16.44;80.52
73633;BME280;61927;50.080;14.418;2023-10-09T12:20:19;99525.13;;;16.45;80.71
73633;BME280;61927;50.080;14.418;2023-10-09T12:23:04;99531.19;;;16.47;80.73
73633;BME280;61927;50.080;14.418;2023-10-09T12:25:30;99528.78;;;16.44;80.58
73633;BME280;61927;50.080;14.418;2023-10-09T12:28:01;99523.56;;;16.42;80.47
73633;BME280;61927;50.080;14.418;2023-10-09T12:30:31;99529.03;;;16.41;81.05
73633;BME280;61927;50.080;14.418;2023-10-09T12:32:57;99529.28;;;16.38;80.62
73633;BME280;61927;50.080;14.418;2023-10-09T12:35:24;99529.69;;;16.33;81.05
73633;BME280;61927;50.080;14.418;2023-10-09T12:37:51;99524.47;;;16.32;80.85
73633;BME280;61927;50.080;14.418;2023-10-09T12:40:17;99523.00;;;16.28;80.63
73633;BME280;61927;50.080;14.418;2023-10-09T12:42:51;99519.75;;;16.24;80.98
73633;BME280;61927;50.080;14.418;2023-10-09T12:45:20;99516.94;;;16.26;80.44
73633;BME280;61927;50.080;14.418;2023-10-09T12:47:55;99514.53;;;16.23;80.72
73633;BME280;61927;50.080;14.418;2023-10-09T12:50:35;99507.59;;;16.20;81.00
73633;BME280;61927;50.080;14.418;2023-10-09T12:53:08;99503.22;;;16.19;81.50
73633;BME280;61927;50.080;14.418;2023-10-09T12:55:37;99498.72;;;16.20;81.61
73633;BME280;61927;50.080;14.418;2023-10-09T12:58:07;99494.34;;;16.19;82.06
73633;BME280;61927;50.080;14.418;2023-10-09T13:00:34;99493.63;;;16.17;81.85
73633;BME280;61927;50.080;14.418;2023-10-09T13:03:06;99500.22;;;16.12;82.53
73633;BME280;61927;50.080;14.418;2023-10-09T13:05:50;99505.56;;;16.12;82.80
73633;BME280;61927;50.080;14.418;2023-10-09T13:08:26;99492.56;;;16.08;82.53
73633;BME280;61927;50.080;14.418;2023-10-09T13:11:03;99499.16;;;16.04;83.36
73633;BME280;61927;50.080;14.418;2023-10-09T13:13:37;99504.16;;;15.97;83.62
73633;BME280;61927;50.080;14.418;2023-10-09T13:16:14;99491.28;;;15.91;84.70
73633;BME280;61927;50.080;14.418;2023-10-09T13:18:50;99487.78;;;15.91;84.65
73633;BME280;61927;50.080;14.418;2023-10-09T13:21:26;99496.06;;;15.88;85.32
73633;BME280;61927;50.080;14.418;2023-10-09T13:23:52;99494.94;;;15.90;85.20
73633;BME280;61927;50.080;14.418;2023-10-09T13:26:23;99483.91;;;15.83;85.74
73633;BME280;61927;50.080;14.418;2023-10-09T13:29:02;99490.09;;;15.84;85.73
73633;BME280;61927;50.080;14.418;2023-10-09T13:31:28;99492.19;;;15.80;86.34
73633;BME280;61927;50.080;14.418;2023-10-09T13:33:57;99484.16;;;15.80;85.32
73633;BME280;61927;50.080;14.418;2023-10-09T13:36:27;99486.00;;;15.80;86.31
73633;BME280;61927;50.080;14.418;2023-10-09T13:38:58;99505.09;;;15.75;86.65